x

Shumagin Islands - 85nm South Of Sand Point, Ak (46075) Wave Buoy

5:50am - Fri 22nd Aug 2014 All times are UTC.

  • Sig Wave height 4.9ft
  • Peak Period 6s
  • Average Period 5s
  • Wind
    18mph, 20mph gusts
  • Sea Temp 58°f
  • 空気 Temp 58°f
  • Sea Pressure 1018.3mb

More Historic Weather Station data

Upgrade to MSW Pro to gain access to the past 30 days of data for over 8000 Wavebouys and Weather Stations around the globe.

Join Pro

Comparision Forecast

View Surf forecast
   
Fri 08/22 5:50am 5ft 6s 5s 18 20 mph 1018.3mb 58f 58f
4:50am 4.5ft 6s 5s 16 20 mph 1018.3mb 58f 56f
3:50am 5ft 5s 5s 18 22 mph 1018.1mb 58f 57f
2:50am 4.5ft 6s 5s 18 20 mph 1018mb 58f 58f
1:50am 4.5ft 5s 5s 16 18 mph 1018.2mb 58f 57f
12:50am 4.5ft 6s 5s 16 18 mph 1018.4mb 58f 56f
Thu 08/21 11:50pm 4.5ft 6s 5s 16 20 mph 1018.6mb 58f 58f
10:50pm 4.5ft 6s 5s 16 18 mph 1019.1mb 58f 58f
9:50pm 4.5ft 8s 5s 16 20 mph 1019.1mb 58f 58f
8:50pm 4.5ft 7s 5s 18 20 mph 1019.2mb 58f 58f
7:50pm 4ft 7s 5s 18 22 mph 1019mb 58f 57f
6:50pm 4ft 8s 5s 16 20 mph 1019.3mb 58f 57f
5:50pm 4ft 7s 5s 18 22 mph 1019.9mb 58f 56f
4:50pm 3.5ft 7s 5s 16 18 mph 1019.9mb 58f 58f
3:50pm 3.5ft 13s 5s 13 16 mph 1020.1mb 58f 58f
2:50pm 3.5ft 8s 5s 13 16 mph 1020.6mb 58f 58f
1:50pm 3.5ft 7s 5s 13 16 mph 1020.7mb 58f 58f
12:50pm 3.5ft 7s 5s 11 13 mph 1020.8mb 58f 58f
11:50am 3.5ft 6s 5s 11 13 mph 1021mb 58f 58f
10:50am 3.5ft 7s 6s 11
mph
1021.6mb 58f 58f
9:50am 3.5ft 7s 7s 11 13 mph 1022mb 58f 58f
8:50am 3.5ft 7s 6s 9 13 mph 1022mb 58f 58f
7:50am 4ft 7s 7s 9 11 mph 1021.9mb 59f 58f
6:50am 4ft 7s 7s 7 9 mph 1021.7mb 59f 58f
5:50am 3.5ft 7s 7s 7 9 mph 1021.5mb 59f 58f
4:50am 3.5ft 7s 7s 7 9 mph 1021.6mb 60f 58f
3:50am 3.5ft 7s 7s 2 4 mph 1021.7mb 60f 58f
2:50am 3.5ft 7s 7s 4
mph
1021.8mb 59f 58f
1:50am 3.5ft 14s 7s 4 7 mph 1022mb 59f 58f
12:50am 3.5ft 7s 7s 4 7 mph 1022.1mb 59f 58f
Wed 08/20 11:50pm 3ft 7s 7s 4
mph
1022.2mb 60f 58f
10:50pm 3ft 14s 7s 4
mph
1022.2mb 60f 58f
9:50pm 3ft 7s 7s 4 7 mph 1022.1mb 59f 58f
8:50pm 3ft 7s 6s 4
mph
1022.1mb 58f 57f
7:50pm 3.5ft 14s 7s 2 4 mph 1021.9mb 58f 57f
6:50pm 3.5ft 14s 7s 2 4 mph 1021.8mb 58f 57f
5:50pm 3.5ft 7s 6s 2
mph
1021.5mb 58f 57f
4:50pm 3.5ft 7s 6s 2
mph
1021.3mb 58f 57f
3:50pm 3.5ft 7s 6s 2
mph
1021.2mb 58f 56f
2:50pm 4ft 7s 6s 2
mph
1021.1mb 58f 56f
1:50pm 4ft 7s 6s 2
mph
1020.9mb 58f 56f
12:50pm 3.5ft 14s 6s 2
mph
1020.8mb 58f 56f
11:50am 3.5ft 7s 6s 2 4 mph 1020.6mb 59f 56f
10:50am 4ft 7s 6s 4
mph
1020.7mb 58f 57f
9:50am 3.5ft 7s 7s 2 4 mph 1020.6mb 59f 57f
8:50am 4ft 8s 7s 2
mph
1020.1mb 59f 57f
7:50am 4.5ft 7s 7s  -  2 mph 1019.8mb 59f 57f
6:50am 4ft 7s 7s  -  2 mph 1019.5mb 59f 57f
5:50am 3.5ft 7s 7s 2
mph
1019mb 60f 57f
4:50am 3.5ft 7s 6s 2 4 mph 1018.9mb 60f 58f
3:50am 3.5ft 8s 7s 2 4 mph 1019mb 60f 58f
2:50am 3.5ft 14s 7s 4 7 mph 1018.7mb 59f 57f
1:50am 3.5ft 15s 7s 4 7 mph 1018.5mb 59f 57f
12:50am 3ft 15s 7s 7
mph
1018.7mb 59f 57f
Tue 08/19 11:50pm 3ft 15s 8s 4 7 mph 1018.5mb 59f 57f
10:50pm 2.5ft 15s 8s 4 7 mph 1018.4mb 58f 57f
9:50pm 3ft 15s 8s 4 7 mph 1018.1mb 58f 56f
8:50pm 3ft 15s 8s 4 7 mph 1018mb 58f 56f
7:50pm 2.5ft 8s 7s 4
mph
1017.7mb 57f 56f
6:50pm 3ft 15s 8s 7
mph
1017.4mb 56f 56f
5:50pm 3ft 15s 8s 7 9 mph 1017.1mb 56f 56f
4:50pm 3ft 15s 7s 7
mph
1016.8mb 56f 56f
3:50pm 2.5ft 8s 7s 7 9 mph 1016.8mb 56f 56f
2:50pm 3ft 8s 7s 9
mph
1017mb 56f 56f
1:50pm 3.5ft 15s 7s 7 9 mph 1017.3mb 56f 56f
12:50pm 3.5ft 15s 7s 7 9 mph 1017.2mb 56f 56f
11:50am 3.5ft 15s 7s 7 9 mph 1017.4mb 56f 56f
10:50am 3.5ft 9s 7s 7 9 mph 1017.5mb 56f 56f
9:50am 3.5ft 8s 7s 7 9 mph 1017.7mb 56f 56f
8:50am 3.5ft 8s 7s 9
mph
1018mb 56f 56f
7:50am 3.5ft 9s 7s 9 11 mph 1018mb 57f 56f
6:50am 3.5ft 8s 7s 9 11 mph 1018.3mb 58f 56f
5:50am 4ft 16s 8s 9 11 mph 1018.1mb 58f 56f
4:50am 3.5ft 9s 7s 7 9 mph 1018.2mb 58f 56f
3:50am 3.5ft 9s 7s 7
mph
1018.8mb 58f 56f
2:50am 4ft 9s 7s 7 9 mph 1019.2mb 57f 56f
1:50am 4ft 10s 6s 7 9 mph 1019.6mb 57f 56f
12:50am 4.5ft 7s 7s 4 7 mph 1020mb 57f 56f
Mon 08/18 11:50pm 4.5ft 8s 6s 7
mph
1020.5mb 57f 55f
10:50pm 4.5ft 8s 7s 7
mph
1020.2mb 57f 55f
9:50pm 4.5ft 9s 6s 4 7 mph 1020.6mb 57f 55f
8:50pm 4.5ft 8s 7s 2 4 mph 1020.6mb 56f 55f
7:50pm 5ft 8s 7s  -  2 mph 1020.7mb 56f 55f
6:50pm 4.5ft 8s 7s 2 4 mph 1020.3mb 56f 55f
5:50pm 5ft 8s 7s 7
mph
1020.2mb 56f 55f
4:50pm 5ft 8s 7s 9
mph
1020.1mb 56f 55f
3:50pm 5ft 8s 7s 7 9 mph 1019.9mb 56f 55f
2:50pm 5ft 8s 7s 7 9 mph 1019.9mb 56f 55f
1:50pm 5ft 8s 6s 7
mph
1019.7mb 56f 55f
12:50pm 5ft 9s 6s 9
mph
1019.4mb 56f 56f
11:50am 5ft 7s 6s 11 13 mph 1019.4mb 57f 56f
10:50am 5ft 8s 6s 11 13 mph 1019.4mb 57f 56f
9:50am 5.5ft 8s 6s 13 16 mph 1019.1mb 57f 56f
8:50am 6ft 9s 6s 13 16 mph 1018.9mb 57f 56f
7:50am 5.5ft 9s 6s 9 11 mph 1018.5mb 57f 56f